PWSweather.com
Personal Weather Stations
Station Observations
KMICHEBO10
Cordwood Point, Lake Huron, Cheboygan, MI 49721

Cordwood Point, Lake HuronCheboygan, MI 49721

Lat: 45.663372, Lon: -84.3327789

Elevation: 598

Station Type: Davis Vantage Pro2 Wireless

https://www.lakehuronweather.org

Latest ConditionsUpdated 5:10:00 AM EST Sunday, Dec 15, 2019
Currently Today's Max Today's Min Today's Average
Temperature 20.7°F-6.3°C 27.6°F-2.4°C 20.7°F-6.3°C 23.1°F-4.9°C
Dew Point 16.9°F-8.4°C 24.8°F-4.0°C 16.9°F-8.4°C 19.6°F-6.9°C
Winds 4.6 mph N7.4 kmh N 5.8 mph -9.3 kmh - - 4.2 mph 6.8 kmh
Wind Gusts 6.9 mph11.1 kmh 10.4 mph16.7 kmh - -
Humidity 85% 89% 85% 87%
Pressure 29.81 in1009.5 mb 29.81 in1009.5 mb 29.63 in1003.4 mb -
Hour Temp Dew Point Humidity Winds Wind Gusts Pressure Precip Precip Rate Daily Precip Total
05:10 AM 20.7°F-6.3°C 16.9°F-8.4°C 85% 4.6 mph N7.4 kmh N 6.9 mph11.1 kmh 29.81 in1009.5 mb - 0.00 in0.0 mm 0.00 in0.0 mm
05:00 AM 20.8°F-6.2°C 17.3°F-8.2°C 86% 5.8 mph N9.3 kmh N 10.4 mph16.7 kmh 29.80 in1009.1 mb - 0.00 in0.0 mm 0.00 in0.0 mm
04:50 AM 21.0°F-6.1°C 17.8°F-7.9°C 87% 5.8 mph N9.3 kmh N 10.4 mph16.7 kmh 29.79 in1008.8 mb - 0.00 in0.0 mm 0.00 in0.0 mm
04:40 AM 21.1°F-6.1°C 18.1°F-7.7°C 88% 4.6 mph NNW7.4 kmh NNW 5.8 mph9.3 kmh 29.79 in1008.8 mb - 0.00 in0.0 mm 0.00 in0.0 mm
04:30 AM 21.1°F-6.1°C 17.8°F-7.9°C 87% 4.6 mph N7.4 kmh N 5.8 mph9.3 kmh 29.78 in1008.5 mb - 0.00 in0.0 mm 0.00 in0.0 mm
04:20 AM 21.1°F-6.1°C 18.1°F-7.7°C 88% 4.6 mph N7.4 kmh N 8.1 mph13.0 kmh 29.77 in1008.1 mb - 0.00 in0.0 mm 0.00 in0.0 mm
04:10 AM 21.0°F-6.1°C 17.7°F-7.9°C 87% 3.5 mph N5.6 kmh N 4.6 mph7.4 kmh 29.77 in1008.1 mb - 0.00 in0.0 mm 0.00 in0.0 mm
04:00 AM 21.0°F-6.1°C 17.5°F-8.1°C 86% 4.6 mph NNW7.4 kmh NNW 4.6 mph7.4 kmh 29.76 in1007.8 mb - 0.00 in0.0 mm 0.00 in0.0 mm
03:50 AM 21.2°F-6.0°C 17.4°F-8.1°C 85% 4.6 mph N7.4 kmh N 5.8 mph9.3 kmh 29.76 in1007.8 mb - 0.00 in0.0 mm 0.00 in0.0 mm
03:40 AM 21.4°F-5.9°C 18.1°F-7.7°C 87% 4.6 mph N7.4 kmh N 4.6 mph7.4 kmh 29.75 in1007.5 mb - 0.00 in0.0 mm 0.00 in0.0 mm
03:30 AM 21.5°F-5.8°C 18.0°F-7.8°C 86% 4.6 mph N7.4 kmh N 5.8 mph9.3 kmh 29.75 in1007.5 mb - 0.00 in0.0 mm 0.00 in0.0 mm
03:20 AM 21.7°F-5.7°C 18.2°F-7.7°C 86% 5.8 mph NNW9.3 kmh NNW 6.9 mph11.1 kmh 29.75 in1007.5 mb - 0.00 in0.0 mm 0.00 in0.0 mm
03:10 AM 21.8°F-5.7°C 18.3°F-7.6°C 86% 4.6 mph NNW7.4 kmh NNW 5.8 mph9.3 kmh 29.74 in1007.1 mb - 0.00 in0.0 mm 0.00 in0.0 mm
03:00 AM 21.8°F-5.7°C 18.3°F-7.6°C 86% 4.6 mph NNW7.4 kmh NNW 6.9 mph11.1 kmh 29.73 in1006.8 mb - 0.00 in0.0 mm 0.00 in0.0 mm
02:50 AM 22.0°F-5.6°C 18.1°F-7.7°C 85% 4.6 mph NNW7.4 kmh NNW 5.8 mph9.3 kmh 29.73 in1006.8 mb - 0.00 in0.0 mm 0.00 in0.0 mm
02:40 AM 22.1°F-5.5°C 18.6°F-7.4°C 86% 4.6 mph NNW7.4 kmh NNW 5.8 mph9.3 kmh 29.72 in1006.4 mb - 0.00 in0.0 mm 0.00 in0.0 mm
02:30 AM 22.5°F-5.3°C 18.9°F-7.3°C 86% 4.6 mph NNW7.4 kmh NNW 4.6 mph7.4 kmh 29.71 in1006.1 mb - 0.00 in0.0 mm 0.00 in0.0 mm
02:20 AM 22.8°F-5.1°C 19.5°F-6.9°C 87% 2.3 mph N3.7 kmh N 4.6 mph7.4 kmh 29.70 in1005.8 mb - 0.00 in0.0 mm 0.00 in0.0 mm
02:10 AM 23.1°F-4.9°C 20.1°F-6.6°C 88% 3.5 mph NW5.6 kmh NW 4.6 mph7.4 kmh 29.70 in1005.8 mb - 0.00 in0.0 mm 0.00 in0.0 mm
02:00 AM 23.3°F-4.8°C 20.0°F-6.7°C 87% 3.5 mph N5.6 kmh N 4.6 mph7.4 kmh 29.69 in1005.4 mb - 0.00 in0.0 mm 0.00 in0.0 mm
01:50 AM 23.5°F-4.7°C 20.2°F-6.6°C 87% 3.5 mph N5.6 kmh N 4.6 mph7.4 kmh 29.69 in1005.4 mb - 0.00 in0.0 mm 0.00 in0.0 mm
01:40 AM 23.7°F-4.6°C 20.1°F-6.6°C 86% 3.5 mph N5.6 kmh N 4.6 mph7.4 kmh 29.68 in1005.1 mb - 0.00 in0.0 mm 0.00 in0.0 mm
01:30 AM 24.0°F-4.4°C 20.4°F-6.4°C 86% 5.8 mph N9.3 kmh N 6.9 mph11.1 kmh 29.67 in1004.7 mb - 0.00 in0.0 mm 0.00 in0.0 mm
01:20 AM 24.4°F-4.2°C 20.5°F-6.4°C 85% 4.6 mph NNW7.4 kmh NNW 5.8 mph9.3 kmh 29.67 in1004.7 mb - 0.00 in0.0 mm 0.00 in0.0 mm
01:10 AM 24.8°F-4.0°C 21.8°F-5.7°C 88% 2.3 mph NNW3.7 kmh NNW 3.5 mph5.6 kmh 29.66 in1004.4 mb - 0.00 in0.0 mm 0.00 in0.0 mm
01:00 AM 25.1°F-3.8°C 22.0°F-5.6°C 88% 2.3 mph NNW3.7 kmh NNW 9.2 mph14.8 kmh 29.66 in1004.4 mb - 0.00 in0.0 mm 0.00 in0.0 mm
12:50 AM 25.4°F-3.7°C 21.8°F-5.7°C 86% 2.3 mph N3.7 kmh N 3.5 mph5.6 kmh 29.65 in1004.1 mb - 0.00 in0.0 mm 0.00 in0.0 mm
12:40 AM 25.8°F-3.4°C 22.2°F-5.4°C 86% 4.6 mph NNW7.4 kmh NNW 6.9 mph11.1 kmh 29.65 in1004.1 mb - 0.00 in0.0 mm 0.00 in0.0 mm
12:30 AM 26.3°F-3.2°C 22.7°F-5.2°C 86% 4.6 mph N7.4 kmh N 5.8 mph9.3 kmh 29.64 in1003.7 mb - 0.00 in0.0 mm 0.00 in0.0 mm
12:20 AM 26.8°F-2.9°C 23.1°F-4.9°C 86% 4.6 mph NNW7.4 kmh NNW 5.8 mph9.3 kmh 29.64 in1003.7 mb - 0.00 in0.0 mm 0.00 in0.0 mm
12:10 AM 27.2°F-2.7°C 23.9°F-4.5°C 87% 3.5 mph NNW5.6 kmh NNW 3.5 mph5.6 kmh 29.63 in1003.4 mb - 0.00 in0.0 mm 0.00 in0.0 mm
12:00 AM 27.6°F-2.4°C 24.8°F-4.0°C 89% 3.5 mph NNW5.6 kmh NNW 4.6 mph7.4 kmh 29.63 in1003.4 mb - 0.00 in0.0 mm 0.00 in0.0 mm